createdAt,value
2022-12-24T00:00:02.191Z,1.7
2022-12-24T00:20:03.065Z,1.7
2022-12-24T00:40:02.438Z,1.7
2022-12-24T01:00:02.986Z,1.7
2022-12-24T01:20:03.021Z,1.7
2022-12-24T01:40:02.475Z,1.7
2022-12-24T02:00:03.184Z,1.8
2022-12-24T02:20:02.919Z,1.8
2022-12-24T02:40:02.513Z,1.7
2022-12-24T03:00:03.097Z,1.7
2022-12-24T03:20:03.224Z,1.6
2022-12-24T03:40:02.681Z,1.5
2022-12-24T04:00:02.432Z,1.5
2022-12-24T04:20:02.209Z,1.7
2022-12-24T04:40:02.746Z,1.5
2022-12-24T05:00:02.046Z,1.4
2022-12-24T05:20:02.659Z,1.4
2022-12-24T05:40:03.146Z,1.4
2022-12-24T06:00:02.946Z,1.4
2022-12-24T06:20:02.301Z,1.4
2022-12-24T06:40:02.766Z,1.4
2022-12-24T07:00:02.413Z,1.4
2022-12-24T07:20:02.197Z,1.4
2022-12-24T07:40:02.846Z,1.3
2022-12-24T08:00:02.140Z,1.4
2022-12-24T08:20:02.819Z,1.4
2022-12-24T08:40:02.354Z,1.4
2022-12-24T09:00:02.653Z,1.4
2022-12-24T09:20:02.719Z,1.5
2022-12-24T09:40:03.360Z,1.5
2022-12-24T10:00:02.998Z,1.5
2022-12-24T10:20:03.094Z,1.7
2022-12-24T10:40:02.776Z,1.8
2022-12-24T11:00:02.090Z,1.8
2022-12-24T11:20:03.229Z,1.9
2022-12-24T11:40:02.696Z,2
2022-12-24T12:00:02.979Z,2
2022-12-24T12:20:02.696Z,2.2
2022-12-24T12:40:03.266Z,2.2
2022-12-24T13:00:02.889Z,2.3
2022-12-24T13:20:02.926Z,2.5
2022-12-24T13:40:02.459Z,2.6
2022-12-24T14:00:03.331Z,2.7
2022-12-24T14:20:03.099Z,2.7
2022-12-24T14:40:02.636Z,2.7
2022-12-24T15:00:03.518Z,2.6
2022-12-24T15:20:02.762Z,2.5
2022-12-24T15:40:02.449Z,2.6
2022-12-24T16:00:03.003Z,2.7
2022-12-24T16:20:02.960Z,2.7
2022-12-24T16:40:02.496Z,2.6
2022-12-24T17:00:03.015Z,2.4
2022-12-24T17:20:03.988Z,2
2022-12-24T17:40:02.419Z,1.6
2022-12-24T18:00:02.832Z,1.2
2022-12-24T18:20:02.636Z,1
2022-12-24T18:40:03.010Z,1.1
2022-12-24T19:00:02.550Z,1.1
2022-12-24T19:20:02.415Z,1.4
2022-12-24T19:40:03.389Z,1.5
2022-12-24T20:00:03.285Z,1.7
2022-12-24T20:20:02.915Z,1.8
2022-12-24T20:40:02.393Z,1.8
2022-12-24T21:00:02.856Z,1.9
2022-12-24T21:20:02.997Z,1.9
2022-12-24T21:40:02.458Z,2
2022-12-24T22:00:02.903Z,2.3
2022-12-24T22:20:02.842Z,2.1
2022-12-24T22:40:02.367Z,2.2
2022-12-24T23:00:02.925Z,2.3
2022-12-24T23:20:02.770Z,2.3
2022-12-24T23:40:02.537Z,2.3
